Time;durP1;ratioP1;P1;durP2;ratioP2;P2;SDS_P1;SDS_P2;PMS_P1;PMS_P2;Temp;Humidity;BMP_temperature;BMP_pressure;BME280_temperature;BME280_humidity;BME280_pressure;Samples;Min_cycle;Max_cycle;Signal;HPM_P1;HPM_P2
2023/05/28 00:04:55;;;;;;;9.40;6.20;;;17.20;83.60;;;;;;10356952;28;20235;-86
2023/05/28 00:09:57;;;;;;;7.50;6.70;;;17.10;83.10;;;;;;10348421;28;20208;-86
2023/05/28 00:15:00;;;;;;;8.43;6.60;;;17.10;83.90;;;;;;10363103;28;20565;-86
2023/05/28 00:20:06;;;;;;;6.67;5.90;;;17.10;83.60;;;;;;10339432;28;20200;-87
2023/05/28 00:25:10;;;;;;;7.03;6.43;;;17.00;83.60;;;;;;10333033;28;20237;-87
2023/05/28 00:30:13;;;;;;;8.53;6.40;;;17.00;85.10;;;;;;10316107;28;20206;-87
2023/05/28 00:35:17;;;;;;;11.23;7.07;;;16.90;84.20;;;;;;10313018;28;20224;-87
2023/05/28 00:40:19;;;;;;;8.00;5.60;;;16.90;84.90;;;;;;10331267;28;20226;-87
2023/05/28 00:45:21;;;;;;;6.63;5.87;;;16.80;83.90;;;;;;10317732;28;20231;-87
2023/05/28 00:50:25;;;;;;;7.07;5.60;;;16.70;85.60;;;;;;10346554;28;20211;-87
2023/05/28 00:55:27;;;;;;;8.27;5.90;;;16.70;84.40;;;;;;10330916;28;20306;-86
2023/05/28 01:00:29;;;;;;;7.70;6.50;;;16.70;83.50;;;;;;10326391;28;20221;-87
2023/05/28 01:05:34;;;;;;;8.80;6.80;;;16.60;84.20;;;;;;10352329;28;20769;-87
2023/05/28 01:10:37;;;;;;;6.70;6.00;;;16.60;84.30;;;;;;10344003;28;20199;-87
2023/05/28 01:15:40;;;;;;;6.30;5.70;;;16.50;85.10;;;;;;10323486;28;20659;-85
2023/05/28 01:20:44;;;;;;;8.10;6.23;;;16.40;84.40;;;;;;10340304;28;20199;-87
2023/05/28 01:25:51;;;;;;;7.73;6.27;;;16.40;84.00;;;;;;10352754;28;20251;-86
2023/05/28 01:30:54;;;;;;;7.77;6.37;;;16.40;84.70;;;;;;10367361;28;20214;-85
2023/05/28 01:35:58;;;;;;;14.77;6.73;;;16.30;84.00;;;;;;10378616;28;20219;-86
2023/05/28 01:41:03;;;;;;;9.50;6.60;;;16.20;85.70;;;;;;10365280;28;20196;-85
2023/05/28 01:46:05;;;;;;;7.13;6.10;;;16.20;84.80;;;;;;10337012;28;20433;-85
2023/05/28 01:51:08;;;;;;;7.53;6.83;;;16.20;85.80;;;;;;10340968;28;20219;-85
2023/05/28 01:56:12;;;;;;;9.13;7.13;;;16.20;87.30;;;;;;10344604;28;20216;-86
2023/05/28 02:01:19;;;;;;;9.50;7.20;;;16.10;87.00;;;;;;10355877;28;20203;-85
2023/05/28 02:06:22;;;;;;;8.60;6.97;;;16.10;87.00;;;;;;10357379;28;20706;-84
2023/05/28 02:11:26;;;;;;;9.93;6.40;;;16.10;88.40;;;;;;10357770;28;20282;-85
2023/05/28 02:16:30;;;;;;;8.03;6.50;;;16.10;88.40;;;;;;10329485;28;20603;-84
2023/05/28 02:21:32;;;;;;;8.20;6.77;;;16.10;88.00;;;;;;10340860;28;20203;-84
2023/05/28 02:26:36;;;;;;;12.73;7.00;;;16.00;88.60;;;;;;10323399;28;20232;-85
2023/05/28 02:31:38;;;;;;;9.40;7.53;;;16.00;88.80;;;;;;10329712;28;20208;-86
2023/05/28 02:36:40;;;;;;;8.83;6.63;;;15.90;88.60;;;;;;10351325;28;20203;-86
2023/05/28 02:41:44;;;;;;;7.50;6.70;;;15.90;88.30;;;;;;10320442;28;20229;-86
2023/05/28 02:46:46;;;;;;;7.87;7.07;;;15.80;89.40;;;;;;10308977;28;20258;-87
2023/05/28 02:51:51;;;;;;;10.33;6.73;;;15.80;89.70;;;;;;10324698;28;20680;-85
2023/05/28 02:57:00;;;;;;;7.20;6.50;;;15.80;88.20;;;;;;10363927;28;20235;-85
2023/05/28 03:02:02;;;;;;;7.67;6.93;;;15.70;89.00;;;;;;10351862;28;20219;-87
2023/05/28 03:07:05;;;;;;;10.37;7.37;;;15.70;89.70;;;;;;10337876;28;20211;-87
2023/05/28 03:12:11;;;;;;;8.90;6.80;;;15.70;89.20;;;;;;10330125;28;20228;-87
2023/05/28 03:17:13;;;;;;;7.40;6.47;;;15.70;89.10;;;;;;10331342;28;20204;-86
2023/05/28 03:22:16;;;;;;;9.30;7.40;;;15.60;90.00;;;;;;10377865;22;20223;-85
2023/05/28 03:27:20;;;;;;;8.30;6.80;;;15.60;89.50;;;;;;10333009;28;20206;-85
2023/05/28 03:32:22;;;;;;;9.60;7.43;;;15.50;89.90;;;;;;10379820;28;20685;-84
2023/05/28 03:37:26;;;;;;;7.57;6.87;;;15.50;89.30;;;;;;10341894;28;20196;-85
2023/05/28 03:42:30;;;;;;;8.93;7.30;;;15.50;90.30;;;;;;10338955;28;20227;-85
2023/05/28 03:47:33;;;;;;;7.77;6.70;;;15.50;90.30;;;;;;10341857;28;20215;-85
2023/05/28 03:52:35;;;;;;;8.80;7.47;;;15.50;90.00;;;;;;10337061;28;20490;-85
2023/05/28 03:57:39;;;;;;;8.73;7.90;;;15.40;90.00;;;;;;10351724;28;20207;-85
2023/05/28 04:02:42;;;;;;;7.67;6.80;;;15.40;90.00;;;;;;10321610;28;20303;-84
2023/05/28 04:07:45;;;;;;;8.33;6.20;;;15.40;89.80;;;;;;10338858;28;20204;-85
2023/05/28 04:12:50;;;;;;;9.07;7.30;;;15.30;90.00;;;;;;10354111;28;20208;-84
2023/05/28 04:17:52;;;;;;;11.07;7.67;;;15.30;88.90;;;;;;10342981;28;20211;-84
2023/05/28 04:22:54;;;;;;;11.57;7.50;;;15.30;90.30;;;;;;10326311;28;20231;-84
2023/05/28 04:28:00;;;;;;;9.03;7.20;;;15.40;90.40;;;;;;10327292;28;20203;-84
2023/05/28 04:33:02;;;;;;;10.90;7.00;;;15.40;90.20;;;;;;10326322;28;20228;-84
2023/05/28 04:38:04;;;;;;;9.03;7.00;;;15.40;90.40;;;;;;10329014;28;20222;-84
2023/05/28 04:43:09;;;;;;;10.73;6.20;;;15.40;90.60;;;;;;10347581;28;20658;-84
2023/05/28 04:48:12;;;;;;;9.73;6.50;;;15.50;90.50;;;;;;10360582;28;20207;-84
2023/05/28 04:53:17;;;;;;;8.30;7.50;;;15.50;90.40;;;;;;10336624;28;20230;-84
2023/05/28 04:58:21;;;;;;;8.07;7.00;;;15.50;90.60;;;;;;10352084;28;20762;-84
2023/05/28 05:03:23;;;;;;;7.80;7.10;;;15.60;91.00;;;;;;10317187;28;20301;-84
2023/05/28 05:08:25;;;;;;;7.27;6.43;;;15.60;91.20;;;;;;10344069;28;20205;-84
2023/05/28 05:13:29;;;;;;;8.57;6.37;;;15.70;91.30;;;;;;10311339;28;20246;-84
2023/05/28 05:18:31;;;;;;;9.83;7.20;;;15.70;91.50;;;;;;10335219;28;20580;-84
2023/05/28 05:23:33;;;;;;;7.93;7.13;;;15.70;91.50;;;;;;10349777;28;20227;-84
2023/05/28 05:28:37;;;;;;;10.03;7.67;;;15.80;91.70;;;;;;10347493;28;20207;-84
2023/05/28 05:33:41;;;;;;;7.73;6.93;;;15.90;91.80;;;;;;10337179;28;20220;-84
2023/05/28 05:38:52;;;;;;;11.60;7.40;;;15.90;91.80;;;;;;10338106;28;20663;-83
2023/05/28 05:44:25;;;;;;;8.20;7.23;;;15.90;91.90;;;;;;10349616;28;20297;-84
2023/05/28 05:49:29;;;;;;;8.03;7.23;;;16.00;92.20;;;;;;10331315;28;20273;-84
2023/05/28 05:54:31;;;;;;;7.57;6.70;;;16.10;91.80;;;;;;10349582;28;20262;-84
2023/05/28 05:59:35;;;;;;;7.03;6.33;;;16.20;92.40;;;;;;10331980;28;20200;-85
2023/05/28 06:04:38;;;;;;;8.70;6.97;;;16.30;92.50;;;;;;10311578;28;20247;-84
2023/05/28 06:10:03;;;;;;;8.50;7.17;;;16.40;92.00;;;;;;10348961;28;20295;-83
2023/05/28 06:15:11;;;;;;;10.37;8.00;;;16.50;92.30;;;;;;10362499;28;20249;-86
2023/05/28 06:20:13;;;;;;;9.40;7.57;;;16.60;92.90;;;;;;10323286;28;20258;-86
2023/05/28 06:25:18;;;;;;;10.97;8.50;;;16.70;92.50;;;;;;10326807;28;20285;-86
2023/05/28 06:30:23;;;;;;;8.27;7.47;;;16.80;93.00;;;;;;10339334;28;20203;-85
2023/05/28 06:35:25;;;;;;;9.23;7.20;;;16.90;92.30;;;;;;10352727;28;20226;-85
2023/05/28 06:40:27;;;;;;;8.23;7.10;;;17.20;92.50;;;;;;10334845;28;20200;-86
2023/05/28 06:45:34;;;;;;;7.77;6.40;;;17.40;92.10;;;;;;10303174;28;20494;-85
2023/05/28 06:50:37;;;;;;;8.73;6.87;;;17.80;91.60;;;;;;10315481;28;20571;-85
2023/05/28 06:55:39;;;;;;;7.13;6.23;;;18.10;91.70;;;;;;10321090;28;20223;-86
2023/05/28 07:01:03;;;;;;;7.80;6.07;;;18.40;91.50;;;;;;10332264;28;20227;-86
2023/05/28 07:06:25;;;;;;;11.37;6.87;;;18.80;90.70;;;;;;10315659;28;20250;-85
2023/05/28 07:11:27;;;;;;;11.20;6.27;;;19.20;89.00;;;;;;10324960;28;20571;-86
2023/05/28 07:16:32;;;;;;;8.93;5.87;;;19.50;87.80;;;;;;10345369;28;20219;-86
2023/05/28 07:21:35;;;;;;;14.47;7.13;;;19.80;85.40;;;;;;10309908;28;20675;-86
2023/05/28 07:26:37;;;;;;;9.90;5.33;;;20.20;84.60;;;;;;10328431;28;20761;-86
2023/05/28 07:31:42;;;;;;;9.13;5.60;;;20.60;85.00;;;;;;10323489;28;20578;-86
2023/05/28 07:36:46;;;;;;;45.97;8.23;;;21.00;79.70;;;;;;10328037;28;20231;-86
2023/05/28 07:41:50;;;;;;;18.90;6.40;;;21.40;80.80;;;;;;10313852;28;20668;-86
2023/05/28 07:47:15;;;;;;;9.60;5.73;;;22.00;81.80;;;;;;10331958;28;20240;-86
2023/05/28 07:52:50;;;;;;;9.13;6.23;;;22.50;79.70;;;;;;10301801;28;20223;-86
2023/05/28 07:57:53;;;;;;;24.77;7.60;;;23.10;78.00;;;;;;10328563;28;20286;-86
2023/05/28 08:02:57;;;;;;;9.37;5.90;;;23.50;72.20;;;;;;10306582;28;20251;-86
2023/05/28 08:08:11;;;;;;;5.60;4.30;;;23.90;76.20;;;;;;10303119;28;20202;-86
2023/05/28 08:13:14;;;;;;;6.03;5.17;;;24.40;73.70;;;;;;10321570;28;20302;-86
2023/05/28 08:18:19;;;;;;;6.00;5.17;;;24.70;73.10;;;;;;10345691;28;20218;-87
2023/05/28 08:23:23;;;;;;;7.00;4.63;;;25.10;75.90;;;;;;10312355;28;20604;-87
2023/05/28 08:28:26;;;;;;;6.73;5.10;;;25.50;74.60;;;;;;10337513;28;20289;-87
2023/05/28 08:33:30;;;;;;;7.67;5.10;;;25.90;73.80;;;;;;10329936;28;20238;-86
2023/05/28 08:38:33;;;;;;;5.33;4.57;;;26.10;72.80;;;;;;10305299;28;20208;-87
2023/05/28 08:43:37;;;;;;;6.67;4.60;;;26.30;71.50;;;;;;10307342;28;20215;-87
2023/05/28 08:48:42;;;;;;;7.77;4.43;;;26.50;64.30;;;;;;10330220;28;20255;-87
2023/05/28 08:53:48;;;;;;;8.00;4.87;;;26.50;70.10;;;;;;10310980;28;20274;-87
2023/05/28 08:58:55;;;;;;;6.87;5.30;;;26.70;66.10;;;;;;10315401;28;20614;-87
2023/05/28 09:04:00;;;;;;;6.37;5.03;;;26.80;68.10;;;;;;10342813;28;20714;-87
2023/05/28 09:09:14;;;;;;;5.53;4.93;;;27.00;69.90;;;;;;10327681;28;20589;-87
2023/05/28 09:14:23;;;;;;;5.40;4.90;;;27.20;69.00;;;;;;10303554;28;20219;-87
2023/05/28 09:19:28;;;;;;;5.20;4.23;;;27.40;67.20;;;;;;10347547;28;20204;-87
2023/05/28 09:24:33;;;;;;;5.23;4.33;;;27.60;69.40;;;;;;10360398;23;20263;-89
2023/05/28 09:30:04;;;;;;;5.47;4.67;;;27.60;69.80;;;;;;10402127;28;20593;-89
2023/05/28 09:35:09;;;;;;;7.00;6.30;;;27.80;69.20;;;;;;10370346;28;20223;-89
2023/05/28 09:40:11;;;;;;;6.13;5.17;;;27.90;65.80;;;;;;10359009;28;20253;-90
2023/05/28 09:45:23;;;;;;;6.83;4.87;;;27.90;67.50;;;;;;10357888;28;20223;-89
2023/05/28 09:50:27;;;;;;;5.57;5.07;;;28.00;67.40;;;;;;10405505;28;20205;-89
2023/05/28 09:55:30;;;;;;;8.83;5.20;;;28.10;65.10;;;;;;10351548;28;20245;-89
2023/05/28 10:00:38;;;;;;;6.40;5.13;;;28.30;60.80;;;;;;10411754;28;20199;-89
2023/05/28 10:05:44;;;;;;;5.70;5.13;;;28.30;65.20;;;;;;10373688;28;20238;-89
2023/05/28 10:10:52;;;;;;;6.03;4.33;;;28.50;63.40;;;;;;10359782;28;20204;-89
2023/05/28 10:15:55;;;;;;;5.20;4.60;;;28.60;65.30;;;;;;10397591;28;20227;-88
2023/05/28 10:20:59;;;;;;;5.63;4.60;;;28.70;60.20;;;;;;10390348;28;20480;-88
2023/05/28 10:26:02;;;;;;;7.10;4.70;;;28.40;62.00;;;;;;10377857;28;20222;-88
2023/05/28 10:31:06;;;;;;;9.80;4.50;;;27.80;62.20;;;;;;10373810;28;20651;-90
2023/05/28 10:36:13;;;;;;;7.40;4.80;;;27.10;67.90;;;;;;10380832;28;20713;-89
2023/05/28 10:41:22;;;;;;;6.73;4.37;;;26.50;60.50;;;;;;10397080;28;20202;-89
2023/05/28 10:46:36;;;;;;;11.00;5.90;;;25.90;63.10;;;;;;10340573;28;20285;-89
2023/05/28 10:51:47;;;;;;;4.67;4.00;;;25.40;60.20;;;;;;10339438;28;20225;-90
2023/05/28 10:57:11;;;;;;;5.97;4.93;;;24.90;62.00;;;;;;10338727;28;20223;-90
2023/05/28 11:02:17;;;;;;;5.43;4.93;;;24.60;64.40;;;;;;10301177;28;20214;-88
2023/05/28 11:07:23;;;;;;;6.43;5.27;;;24.40;62.90;;;;;;10345223;28;20305;-89
2023/05/28 11:12:27;;;;;;;6.60;5.93;;;24.10;64.30;;;;;;10395009;28;20284;-89
2023/05/28 11:17:29;;;;;;;6.40;4.70;;;23.90;66.00;;;;;;10348291;28;20195;-89
2023/05/28 11:22:36;;;;;;;5.40;4.90;;;23.80;65.60;;;;;;10386208;28;20207;-89
2023/05/28 11:27:42;;;;;;;6.67;4.90;;;23.60;70.00;;;;;;10375964;28;20218;-89
2023/05/28 11:32:45;;;;;;;6.13;5.50;;;23.50;67.90;;;;;;10337383;28;20239;-89
2023/05/28 11:37:49;;;;;;;11.20;5.43;;;23.40;68.50;;;;;;10338239;28;20201;-90
2023/05/28 11:42:59;;;;;;;6.03;4.70;;;23.40;66.40;;;;;;10376773;28;20240;-89
2023/05/28 11:48:01;;;;;;;8.43;5.90;;;23.30;72.20;;;;;;10355047;28;20762;-89
2023/05/28 11:53:05;;;;;;;7.70;5.83;;;23.10;71.80;;;;;;10376829;28;20226;-89
2023/05/28 11:58:08;;;;;;;6.63;5.17;;;23.10;75.40;;;;;;10354805;28;20191;-90
2023/05/28 12:03:11;;;;;;;6.30;5.00;;;23.00;72.70;;;;;;10356915;28;20239;-89
2023/05/28 12:08:19;;;;;;;6.33;4.77;;;23.00;64.10;;;;;;10372151;28;20223;-89
2023/05/28 12:13:24;;;;;;;7.60;5.90;;;22.90;68.60;;;;;;10377925;28;20250;-89
2023/05/28 12:18:29;;;;;;;5.10;4.57;;;22.90;65.50;;;;;;10337439;28;20201;-89
2023/05/28 12:23:32;;;;;;;6.03;5.00;;;22.90;64.40;;;;;;10403294;28;20302;-89
2023/05/28 12:28:39;;;;;;;6.40;5.43;;;22.90;60.70;;;;;;10369934;28;20226;-89
2023/05/28 12:33:41;;;;;;;7.77;4.90;;;22.90;59.30;;;;;;10353976;28;20230;-90
2023/05/28 12:38:45;;;;;;;5.80;5.23;;;23.00;65.00;;;;;;10378426;28;20203;-89
2023/05/28 12:43:48;;;;;;;5.60;5.10;;;23.10;65.70;;;;;;10344353;28;20222;-90
2023/05/28 12:48:50;;;;;;;5.60;4.80;;;23.10;68.60;;;;;;10359583;28;20203;-89
2023/05/28 12:53:59;;;;;;;6.77;5.03;;;23.10;66.80;;;;;;10305395;28;20223;-89
2023/05/28 12:59:05;;;;;;;5.80;5.17;;;23.10;70.10;;;;;;10354573;28;20199;-89
2023/05/28 13:04:10;;;;;;;5.80;5.20;;;23.00;74.20;;;;;;10412382;28;20254;-88
2023/05/28 13:09:16;;;;;;;4.90;4.47;;;22.90;69.10;;;;;;10381611;28;20199;-88
2023/05/28 13:14:22;;;;;;;30.43;18.33;;;22.90;71.50;;;;;;10343447;28;20226;-88
2023/05/28 13:19:27;;;;;;;5.30;4.70;;;22.90;68.30;;;;;;10383443;28;20227;-88
2023/05/28 13:24:34;;;;;;;6.30;5.40;;;22.90;67.10;;;;;;10367489;28;20241;-89
2023/05/28 13:29:38;;;;;;;5.27;4.77;;;22.90;64.80;;;;;;10358989;28;20275;-90
2023/05/28 13:34:41;;;;;;;7.03;4.70;;;23.00;65.90;;;;;;10398123;28;20780;-89
2023/05/28 13:39:49;;;;;;;5.33;4.83;;;23.00;66.30;;;;;;10395974;28;20229;-90
2023/05/28 13:44:54;;;;;;;5.83;5.23;;;23.00;66.50;;;;;;10354198;28;20218;-89
2023/05/28 13:49:57;;;;;;;6.80;5.07;;;23.00;68.30;;;;;;10341427;28;20208;-89
2023/05/28 13:55:05;;;;;;;4.73;4.33;;;23.00;67.20;;;;;;10381011;28;20726;-89
2023/05/28 14:00:13;;;;;;;5.47;4.97;;;23.10;63.00;;;;;;10357422;28;20201;-90
2023/05/28 14:05:19;;;;;;;8.73;5.40;;;23.10;63.00;;;;;;10358230;28;20235;-89
2023/05/28 14:10:26;;;;;;;5.90;5.37;;;23.10;65.80;;;;;;10364914;28;20210;-89
2023/05/28 14:15:29;;;;;;;4.90;4.50;;;23.10;66.30;;;;;;10363647;28;20225;-89
2023/05/28 14:20:34;;;;;;;5.03;4.50;;;23.10;64.00;;;;;;10351414;28;20206;-91
2023/05/28 14:25:38;;;;;;;5.43;4.93;;;23.10;62.90;;;;;;10385361;28;20782;-90
2023/05/28 14:30:47;;;;;;;5.77;5.23;;;23.20;63.40;;;;;;10360856;28;20199;-89
2023/05/28 14:35:51;;;;;;;6.83;5.50;;;23.20;61.70;;;;;;10338165;28;20232;-89
2023/05/28 14:40:57;;;;;;;6.17;5.60;;;23.20;66.00;;;;;;10338901;28;20214;-90
2023/05/28 14:45:59;;;;;;;5.27;4.87;;;23.20;64.30;;;;;;10358601;28;20746;-89
2023/05/28 14:51:02;;;;;;;5.63;5.13;;;23.20;62.10;;;;;;10364369;28;20241;-90
2023/05/28 14:56:06;;;;;;;5.60;4.57;;;23.10;62.00;;;;;;10338935;28;20257;-89
2023/05/28 15:01:09;;;;;;;6.60;5.63;;;23.10;64.60;;;;;;10411624;28;20199;-89
2023/05/28 15:06:13;;;;;;;7.47;5.40;;;23.10;62.30;;;;;;10354837;28;20254;-90
2023/05/28 15:11:22;;;;;;;7.27;5.10;;;23.10;61.90;;;;;;10376952;28;20203;-90
2023/05/28 15:16:26;;;;;;;6.27;5.50;;;23.10;64.20;;;;;;10372326;28;20229;-89
2023/05/28 15:21:29;;;;;;;8.40;5.47;;;23.10;61.40;;;;;;10337971;28;20679;-89
2023/05/28 15:26:33;;;;;;;5.70;4.80;;;23.10;64.50;;;;;;10389403;23;20259;-88
2023/05/28 15:31:37;;;;;;;8.13;5.77;;;23.00;63.20;;;;;;10355290;28;20722;-88
2023/05/28 15:36:39;;;;;;;7.20;6.17;;;23.00;62.00;;;;;;10339435;28;20757;-88
2023/05/28 15:41:46;;;;;;;6.00;5.40;;;23.10;63.60;;;;;;10339959;28;20289;-88
2023/05/28 15:46:48;;;;;;;6.40;5.33;;;23.10;62.20;;;;;;10339986;28;20250;-88
2023/05/28 15:51:51;;;;;;;6.17;5.57;;;23.10;64.30;;;;;;10339965;28;20249;-89
2023/05/28 15:56:55;;;;;;;7.00;5.60;;;23.00;64.50;;;;;;10340364;28;20314;-87
2023/05/28 16:01:57;;;;;;;5.73;5.17;;;23.00;63.80;;;;;;10355277;28;20218;-89
2023/05/28 16:07:00;;;;;;;6.03;5.33;;;23.00;63.70;;;;;;10379199;28;20226;-88
2023/05/28 16:12:06;;;;;;;7.33;6.50;;;23.00;62.00;;;;;;10341692;28;20272;-87
2023/05/28 16:17:09;;;;;;;9.93;6.20;;;23.00;63.10;;;;;;10335594;28;20221;-86
2023/05/28 16:22:12;;;;;;;8.70;5.77;;;23.00;60.20;;;;;;10393273;28;20209;-87
2023/05/28 16:27:15;;;;;;;6.60;5.97;;;23.00;63.10;;;;;;10315286;28;20262;-86
2023/05/28 16:32:18;;;;;;;6.63;5.80;;;22.90;59.90;;;;;;10353512;28;20217;-88
2023/05/28 16:37:21;;;;;;;6.30;5.70;;;22.90;64.10;;;;;;10312956;28;20220;-87
2023/05/28 16:42:25;;;;;;;7.60;5.50;;;22.90;62.20;;;;;;10317207;28;20298;-86
2023/05/28 16:47:30;;;;;;;9.27;6.20;;;22.80;61.10;;;;;;10321309;28;20236;-86
2023/05/28 16:52:32;;;;;;;7.00;6.30;;;22.80;61.10;;;;;;10322361;28;20196;-87
2023/05/28 16:57:36;;;;;;;7.20;6.00;;;22.80;61.20;;;;;;10321037;28;20219;-86
2023/05/28 17:02:40;;;;;;;7.27;5.50;;;22.80;62.60;;;;;;10321431;28;20211;-87
2023/05/28 17:07:42;;;;;;;9.00;6.37;;;22.80;65.30;;;;;;10321009;28;20315;-87
2023/05/28 17:12:46;;;;;;;7.40;6.03;;;22.70;64.90;;;;;;10321070;28;20204;-88
2023/05/28 17:17:48;;;;;;;6.47;5.87;;;22.70;62.00;;;;;;10321411;28;20211;-86
2023/05/28 17:22:51;;;;;;;6.10;5.50;;;22.70;61.20;;;;;;10322861;28;20207;-86
2023/05/28 17:27:54;;;;;;;7.90;6.23;;;22.70;64.80;;;;;;10361234;28;20735;-88
2023/05/28 17:32:57;;;;;;;7.20;5.67;;;22.70;64.60;;;;;;10344731;28;20202;-85
2023/05/28 17:37:59;;;;;;;7.13;6.03;;;22.70;65.90;;;;;;10356426;28;20688;-87
2023/05/28 17:43:02;;;;;;;6.30;5.70;;;22.60;67.00;;;;;;10385323;28;20202;-87
2023/05/28 17:48:05;;;;;;;8.93;6.20;;;22.50;64.10;;;;;;10345930;28;20219;-87
2023/05/28 17:53:07;;;;;;;5.40;4.90;;;22.50;63.20;;;;;;10344596;28;20265;-87
2023/05/28 17:58:11;;;;;;;6.53;5.93;;;22.40;68.70;;;;;;10347579;28;20249;-86
2023/05/28 18:03:13;;;;;;;6.50;5.90;;;22.30;65.50;;;;;;10374188;28;20231;-86
2023/05/28 18:08:15;;;;;;;6.50;5.70;;;22.30;60.90;;;;;;10359045;28;20231;-86
2023/05/28 18:13:19;;;;;;;6.87;5.20;;;22.30;63.10;;;;;;10378828;28;20223;-87
2023/05/28 18:18:21;;;;;;;6.17;5.57;;;22.30;67.80;;;;;;10407426;28;20185;-89
2023/05/28 18:23:25;;;;;;;7.67;5.57;;;22.20;63.90;;;;;;10417525;28;20288;-87
2023/05/28 18:28:28;;;;;;;6.87;5.60;;;22.00;67.00;;;;;;10401862;28;20237;-88
2023/05/28 18:33:30;;;;;;;5.87;5.17;;;22.00;68.00;;;;;;10373103;28;20714;-86
2023/05/28 18:38:32;;;;;;;8.10;5.20;;;21.90;66.50;;;;;;10397005;28;20233;-86
2023/05/28 18:43:36;;;;;;;6.03;4.83;;;21.80;68.70;;;;;;10392908;28;20711;-86
2023/05/28 18:48:38;;;;;;;5.77;5.27;;;21.80;65.10;;;;;;10374033;28;20222;-87
2023/05/28 18:53:40;;;;;;;7.40;5.50;;;21.70;66.90;;;;;;10394372;28;20701;-87
2023/05/28 18:58:44;;;;;;;5.90;4.80;;;21.60;70.00;;;;;;10385031;28;20223;-86
2023/05/28 19:03:48;;;;;;;5.43;4.67;;;21.50;68.50;;;;;;10386440;28;20231;-91
2023/05/28 19:08:50;;;;;;;5.87;5.37;;;21.40;69.30;;;;;;10400965;28;20222;-87
2023/05/28 19:13:53;;;;;;;6.40;5.63;;;21.40;71.20;;;;;;10401952;28;20754;-87
2023/05/28 19:18:55;;;;;;;5.43;4.90;;;21.30;75.70;;;;;;10400676;28;20205;-86
2023/05/28 19:23:58;;;;;;;6.57;5.97;;;21.20;75.00;;;;;;10420928;28;20249;-88
2023/05/28 19:29:01;;;;;;;6.03;5.43;;;21.00;74.90;;;;;;10380427;28;20223;-88
2023/05/28 19:34:03;;;;;;;6.70;5.67;;;20.90;75.50;;;;;;10354488;28;20577;-86
2023/05/28 19:39:06;;;;;;;6.00;5.40;;;20.80;75.00;;;;;;10367991;28;20359;-87
2023/05/28 19:44:09;;;;;;;7.87;6.30;;;20.70;76.10;;;;;;10379286;28;20223;-86
2023/05/28 19:49:11;;;;;;;10.13;5.73;;;20.60;75.30;;;;;;10395979;28;20223;-86
2023/05/28 19:54:14;;;;;;;8.07;5.60;;;20.50;73.30;;;;;;10378795;28;20644;-87
2023/05/28 19:59:18;;;;;;;6.40;5.40;;;20.50;76.60;;;;;;10379118;28;20229;-86
2023/05/28 20:04:20;;;;;;;8.70;5.50;;;20.30;75.00;;;;;;10396984;28;20643;-87
2023/05/28 20:09:22;;;;;;;6.70;5.10;;;20.30;75.30;;;;;;10338272;28;20242;-86
2023/05/28 20:14:26;;;;;;;6.67;5.60;;;20.20;76.20;;;;;;10355044;28;20226;-86
2023/05/28 20:19:28;;;;;;;6.67;6.00;;;20.10;76.40;;;;;;10361723;28;20514;-86
2023/05/28 20:24:31;;;;;;;6.37;5.23;;;20.00;74.30;;;;;;10388503;28;20234;-86
2023/05/28 20:29:35;;;;;;;4.90;4.43;;;20.00;75.80;;;;;;10378967;28;20230;-86
2023/05/28 20:34:37;;;;;;;9.03;5.53;;;19.90;75.40;;;;;;10361269;28;20238;-86
2023/05/28 20:39:39;;;;;;;5.90;5.33;;;19.90;76.20;;;;;;10376695;28;20297;-86
2023/05/28 20:44:44;;;;;;;6.00;5.50;;;19.70;77.90;;;;;;10372323;28;20257;-86
2023/05/28 20:49:46;;;;;;;6.23;5.63;;;19.70;77.10;;;;;;10396098;28;20305;-86
2023/05/28 20:54:49;;;;;;;5.80;5.13;;;19.60;76.80;;;;;;10361301;28;20234;-86
2023/05/28 20:59:52;;;;;;;12.17;5.60;;;19.50;78.80;;;;;;10403148;28;20198;-86
2023/05/28 21:04:54;;;;;;;8.43;6.70;;;19.50;78.80;;;;;;10361045;28;20223;-86
2023/05/28 21:09:56;;;;;;;6.00;5.40;;;19.40;77.30;;;;;;10356486;28;20223;-86
2023/05/28 21:15:00;;;;;;;6.50;5.50;;;19.40;78.30;;;;;;10367660;28;20227;-86
2023/05/28 21:20:04;;;;;;;6.70;5.60;;;19.30;79.30;;;;;;10378473;28;20199;-86
2023/05/28 21:25:07;;;;;;;6.83;5.67;;;19.20;79.20;;;;;;10396541;23;20316;-84
2023/05/28 21:30:11;;;;;;;6.13;5.40;;;19.20;80.60;;;;;;10442463;28;20219;-84
2023/05/28 21:35:14;;;;;;;6.50;6.00;;;19.10;80.70;;;;;;10403124;28;20376;-83
2023/05/28 21:40:16;;;;;;;7.07;5.90;;;19.00;80.50;;;;;;10383494;28;20623;-83
2023/05/28 21:45:19;;;;;;;11.10;6.40;;;19.00;80.50;;;;;;10384153;28;20226;-83
2023/05/28 21:50:24;;;;;;;6.00;5.43;;;19.00;81.20;;;;;;10402166;28;20310;-83
2023/05/28 21:55:26;;;;;;;7.77;6.53;;;18.90;81.10;;;;;;10384432;28;20229;-83
2023/05/28 22:00:30;;;;;;;7.33;6.03;;;18.90;81.60;;;;;;10388520;28;20659;-83
2023/05/28 22:05:33;;;;;;;7.17;6.47;;;18.80;81.60;;;;;;10386735;28;20234;-83
2023/05/28 22:10:35;;;;;;;6.40;5.80;;;18.70;81.50;;;;;;10385836;28;20244;-83
2023/05/28 22:15:39;;;;;;;6.93;5.53;;;18.70;81.50;;;;;;10384099;28;20219;-83
2023/05/28 22:20:42;;;;;;;6.57;5.37;;;18.60;81.80;;;;;;10411480;28;20195;-83
2023/05/28 22:25:44;;;;;;;8.27;5.87;;;18.50;82.20;;;;;;10385817;28;20747;-84
2023/05/28 22:30:48;;;;;;;8.83;5.80;;;18.60;80.40;;;;;;10392122;28;20194;-84
2023/05/28 22:35:50;;;;;;;6.13;5.53;;;18.50;81.70;;;;;;10359316;28;20588;-84
2023/05/28 22:40:52;;;;;;;12.47;5.83;;;18.40;82.70;;;;;;10354427;28;20261;-82
2023/05/28 22:45:56;;;;;;;7.57;5.60;;;18.40;83.00;;;;;;10394458;28;20223;-84
2023/05/28 22:50:58;;;;;;;8.00;5.07;;;18.30;83.50;;;;;;10393877;28;20195;-84
2023/05/28 22:56:00;;;;;;;6.23;5.23;;;18.30;82.90;;;;;;10409110;28;20233;-84
2023/05/28 23:01:03;;;;;;;8.10;6.13;;;18.30;82.10;;;;;;10392445;28;20222;-85
2023/05/28 23:06:07;;;;;;;6.60;5.33;;;18.20;82.90;;;;;;10381268;28;20228;-85
2023/05/28 23:11:09;;;;;;;5.07;4.67;;;18.20;83.80;;;;;;10406681;28;20654;-84
2023/05/28 23:16:13;;;;;;;6.10;5.10;;;18.10;83.20;;;;;;10391889;28;20245;-85
2023/05/28 23:21:15;;;;;;;5.50;4.83;;;18.10;83.30;;;;;;10386433;28;20229;-84
2023/05/28 23:26:17;;;;;;;5.67;5.20;;;18.10;83.20;;;;;;10382089;28;20227;-85
2023/05/28 23:31:20;;;;;;;5.20;4.60;;;18.00;83.50;;;;;;10382064;28;20205;-85
2023/05/28 23:36:23;;;;;;;5.80;5.10;;;18.00;83.90;;;;;;10380522;28;20226;-85
2023/05/28 23:41:25;;;;;;;6.80;5.03;;;18.00;83.90;;;;;;10380785;28;20202;-85
2023/05/28 23:46:32;;;;;;;5.10;4.60;;;18.00;83.20;;;;;;10381230;28;20222;-84
2023/05/28 23:51:35;;;;;;;5.43;4.93;;;17.90;83.80;;;;;;10380463;28;20206;-85
2023/05/28 23:56:37;;;;;;;5.70;4.60;;;17.90;83.60;;;;;;10385730;28;20242;-85
